createdAt,value
2023-03-28T00:02:13.043Z,12.40
2023-03-28T00:04:41.365Z,12.70
2023-03-28T00:07:08.497Z,12.80
2023-03-28T00:09:35.578Z,12.50
2023-03-28T00:12:02.642Z,12.50
2023-03-28T00:14:29.980Z,12.20
2023-03-28T00:16:57.304Z,12.10
2023-03-28T00:19:24.379Z,11.90
2023-03-28T00:21:51.578Z,11.80
2023-03-28T00:24:21.434Z,12.30
2023-03-28T00:26:49.718Z,12.30
2023-03-28T00:29:20.983Z,12.10
2023-03-28T00:31:50.905Z,12.40
2023-03-28T00:34:18.215Z,11.40
2023-03-28T00:36:45.507Z,12.10
2023-03-28T00:39:13.484Z,12.60
2023-03-28T00:41:42.678Z,12.80
2023-03-28T00:44:28.639Z,12.40
2023-03-28T00:46:57.970Z,12.50
2023-03-28T00:49:26.150Z,12.40
2023-03-28T00:51:57.614Z,11.70
2023-03-28T00:54:27.150Z,11.60
2023-03-28T00:56:55.732Z,11.50
2023-03-28T00:59:25.636Z,11.40
2023-03-28T01:01:53.667Z,11.30
2023-03-28T01:04:22.229Z,11.20
2023-03-28T01:06:56.893Z,11.20
2023-03-28T01:09:25.685Z,11.10
2023-03-28T01:11:54.584Z,11.10
2023-03-28T01:14:23.184Z,11.30
2023-03-28T01:16:52.675Z,11.10
2023-03-28T01:19:36.189Z,11.00
2023-03-28T01:22:13.856Z,11.20
2023-03-28T01:24:47.278Z,11.10
2023-03-28T01:27:33.100Z,11.60
2023-03-28T01:30:26.974Z,11.40
2023-03-28T01:33:52.792Z,11.80
2023-03-28T01:36:34.079Z,11.50
2023-03-28T01:39:09.382Z,11.70
2023-03-28T01:41:41.762Z,11.50
2023-03-28T01:44:21.371Z,11.50
2023-03-28T01:46:59.184Z,11.20
2023-03-28T01:49:41.982Z,11.10
2023-03-28T01:52:32.403Z,11.10
2023-03-28T01:55:14.206Z,11.10
2023-03-28T01:58:05.292Z,11.10
2023-03-28T02:00:43.442Z,11.10
2023-03-28T02:03:18.700Z,10.90
2023-03-28T02:05:57.057Z,10.70
2023-03-28T02:08:26.047Z,10.70
2023-03-28T02:11:13.783Z,10.80
2023-03-28T02:13:51.081Z,10.80
2023-03-28T02:16:38.724Z,10.40
2023-03-28T02:19:29.725Z,10.60
2023-03-28T02:22:12.511Z,10.70
2023-03-28T02:24:39.546Z,10.40
2023-03-28T02:27:21.615Z,10.60
2023-03-28T02:30:03.060Z,10.30
2023-03-28T02:32:38.091Z,10.50
2023-03-28T02:35:06.029Z,10.60
2023-03-28T02:37:39.851Z,10.20
2023-03-28T02:40:16.042Z,10.30
2023-03-28T02:42:43.127Z,10.60
2023-03-28T02:45:10.438Z,10.40
2023-03-28T02:47:43.558Z,10.60
2023-03-28T02:50:25.905Z,10.80
2023-03-28T02:53:14.622Z,10.30
2023-03-28T02:55:55.193Z,10.20
2023-03-28T02:58:43.210Z,10.20
2023-03-28T03:01:10.549Z,10.00
2023-03-28T03:03:37.947Z,10.00
2023-03-28T03:06:05.946Z,9.90
2023-03-28T03:08:34.100Z,10.00
2023-03-28T03:11:01.221Z,10.10
2023-03-28T03:13:28.346Z,10.00
2023-03-28T03:15:58.743Z,10.20
2023-03-28T03:18:26.258Z,10.00
2023-03-28T03:20:55.930Z,10.00
2023-03-28T03:23:22.995Z,10.00
2023-03-28T03:25:54.596Z,10.10
2023-03-28T03:28:41.651Z,9.90
2023-03-28T03:31:09.540Z,9.90
2023-03-28T03:33:51.793Z,9.90
2023-03-28T03:36:27.167Z,10.10
2023-03-28T03:38:54.300Z,10.00
2023-03-28T03:41:23.154Z,9.80
2023-03-28T03:43:50.398Z,10.00
2023-03-28T03:46:17.926Z,10.20
2023-03-28T03:48:49.300Z,10.00
2023-03-28T03:51:17.690Z,10.00
2023-03-28T03:53:46.709Z,9.70
2023-03-28T03:56:16.775Z,9.80
2023-03-28T03:59:03.664Z,10.00
2023-03-28T04:01:32.517Z,10.00
2023-03-28T04:04:13.137Z,10.10
2023-03-28T04:07:02.313Z,9.90
2023-03-28T04:09:29.634Z,9.90
2023-03-28T04:12:00.532Z,9.80
2023-03-28T04:14:28.234Z,10.00
2023-03-28T04:17:21.388Z,10.10
2023-03-28T04:19:49.678Z,10.00
2023-03-28T04:22:18.353Z,9.80
2023-03-28T04:24:56.822Z,9.70
2023-03-28T04:27:36.002Z,9.90
2023-03-28T04:30:04.037Z,9.90
2023-03-28T04:32:54.306Z,9.80
2023-03-28T04:35:29.775Z,9.90
2023-03-28T04:37:59.581Z,9.90
2023-03-28T04:40:28.035Z,9.70
2023-03-28T04:43:17.920Z,9.50
2023-03-28T04:45:49.947Z,9.70
2023-03-28T04:48:18.326Z,9.60
2023-03-28T04:50:45.796Z,9.40
2023-03-28T04:53:14.657Z,9.50
2023-03-28T04:56:00.704Z,9.70
2023-03-28T04:58:29.055Z,9.80
2023-03-28T05:00:58.741Z,9.70
2023-03-28T05:03:54.901Z,9.80
2023-03-28T05:06:21.996Z,9.60
2023-03-28T05:08:49.580Z,9.40
2023-03-28T05:11:16.845Z,9.10
2023-03-28T05:13:44.250Z,9.10
2023-03-28T05:16:23.453Z,9.00
2023-03-28T05:19:13.874Z,9.00
2023-03-28T05:22:19.178Z,8.70
2023-03-28T05:24:46.260Z,8.80
2023-03-28T05:27:18.008Z,8.90
2023-03-28T05:29:45.547Z,9.00
2023-03-28T05:32:12.942Z,9.10
2023-03-28T05:34:41.348Z,9.30
2023-03-28T05:37:09.421Z,9.20
2023-03-28T05:39:49.541Z,9.10
2023-03-28T05:42:17.049Z,9.00
2023-03-28T05:44:44.250Z,8.90
2023-03-28T05:47:31.432Z,8.80
2023-03-28T05:49:58.867Z,8.90
2023-03-28T05:52:26.106Z,9.00
2023-03-28T05:54:53.372Z,9.00
2023-03-28T05:57:21.978Z,8.90
2023-03-28T05:59:49.660Z,9.20
2023-03-28T06:02:21.063Z,9.10
2023-03-28T06:04:48.698Z,9.00
2023-03-28T06:07:16.033Z,8.90
2023-03-28T06:09:44.151Z,9.00
2023-03-28T06:12:11.906Z,9.20
2023-03-28T06:14:44.869Z,9.30
2023-03-28T06:17:23.436Z,9.30
2023-03-28T06:19:55.347Z,9.40
2023-03-28T06:22:24.006Z,9.60
2023-03-28T06:24:56.466Z,9.60
2023-03-28T06:27:28.365Z,9.70
2023-03-28T06:29:55.842Z,9.90
2023-03-28T06:32:22.984Z,10.10
2023-03-28T06:34:50.777Z,10.20
2023-03-28T06:37:17.870Z,10.50
2023-03-28T06:40:02.182Z,10.80
2023-03-28T06:42:31.241Z,11.00
2023-03-28T06:45:12.379Z,11.30
2023-03-28T06:47:48.739Z,11.90
2023-03-28T06:50:16.505Z,12.60
2023-03-28T06:52:52.089Z,13.20
2023-03-28T06:55:19.264Z,13.70
2023-03-28T06:57:46.350Z,14.20
2023-03-28T07:00:33.912Z,14.50
2023-03-28T07:03:24.264Z,15.10
2023-03-28T07:05:51.410Z,15.40
2023-03-28T07:08:18.627Z,15.70
2023-03-28T07:10:45.845Z,15.90
2023-03-28T07:13:13.155Z,16.10
2023-03-28T07:15:59.319Z,16.40
2023-03-28T07:18:27.026Z,16.20
2023-03-28T07:21:03.961Z,16.50
2023-03-28T07:23:31.911Z,16.90
2023-03-28T07:25:59.178Z,16.90
2023-03-28T07:28:26.429Z,17.10
2023-03-28T07:30:54.873Z,17.90
2023-03-28T07:33:29.081Z,18.20
2023-03-28T07:36:13.754Z,17.90
2023-03-28T07:38:43.078Z,18.20
2023-03-28T07:41:10.888Z,18.70
2023-03-28T07:43:39.949Z,19.00
2023-03-28T07:46:08.501Z,19.00
2023-03-28T07:48:37.586Z,18.90
2023-03-28T07:51:06.439Z,18.80
2023-03-28T07:53:34.346Z,19.10
2023-03-28T07:56:01.521Z,19.10
2023-03-28T07:58:44.251Z,19.40
2023-03-28T08:01:12.652Z,19.50
2023-03-28T08:03:46.912Z,19.70
2023-03-28T08:06:31.085Z,20.50
2023-03-28T08:09:00.839Z,20.10
2023-03-28T08:11:33.279Z,20.10
2023-03-28T08:14:00.815Z,20.50
2023-03-28T08:16:29.510Z,20.40
2023-03-28T08:19:10.141Z,20.30
2023-03-28T08:21:48.255Z,20.20
2023-03-28T08:24:25.303Z,20.70
2023-03-28T08:27:04.644Z,20.90
2023-03-28T08:29:34.086Z,20.70
2023-03-28T08:32:01.636Z,21.10
2023-03-28T08:34:32.065Z,21.70
2023-03-28T08:37:01.443Z,21.90
2023-03-28T08:39:29.967Z,21.10
2023-03-28T08:42:16.198Z,20.80
2023-03-28T08:45:01.969Z,20.70
2023-03-28T08:47:30.897Z,21.70
2023-03-28T08:50:16.166Z,21.30
2023-03-28T08:52:44.567Z,22.00
2023-03-28T08:55:11.854Z,21.10
2023-03-28T08:57:41.032Z,20.90
2023-03-28T09:00:15.360Z,20.90
2023-03-28T09:02:44.134Z,21.60
2023-03-28T09:07:51.946Z,21.30
2023-03-28T09:10:29.164Z,21.80
2023-03-28T09:13:21.347Z,21.70
2023-03-28T09:15:57.272Z,22.90
2023-03-28T09:18:34.464Z,21.90
2023-03-28T09:21:08.093Z,21.60
2023-03-28T09:23:57.677Z,22.30
2023-03-28T09:26:57.066Z,22.30
2023-03-28T09:29:26.007Z,22.30
2023-03-28T09:31:59.805Z,22.10
2023-03-28T09:34:30.422Z,21.80
2023-03-28T09:37:24.779Z,21.30
2023-03-28T09:39:53.865Z,21.00
2023-03-28T09:42:41.645Z,20.20
2023-03-28T09:45:45.715Z,19.10
2023-03-28T09:48:32.846Z,18.50
2023-03-28T09:51:05.418Z,18.40
2023-03-28T09:53:33.902Z,18.50
2023-03-28T09:56:04.738Z,18.80
2023-03-28T09:58:56.994Z,19.10
2023-03-28T10:01:46.017Z,19.20
2023-03-28T10:04:32.990Z,19.00
2023-03-28T10:07:42.809Z,19.50
2023-03-28T10:10:32.752Z,19.70
2023-03-28T10:13:09.821Z,19.60
2023-03-28T10:15:43.211Z,20.10
2023-03-28T10:18:25.482Z,19.60
2023-03-28T10:21:26.433Z,19.20
2023-03-28T10:24:16.911Z,19.70
2023-03-28T10:26:50.596Z,19.90
2023-03-28T10:29:19.204Z,20.30
2023-03-28T10:31:47.792Z,20.70
2023-03-28T10:34:35.236Z,20.90
2023-03-28T10:37:27.467Z,21.90
2023-03-28T10:40:19.129Z,23.10
2023-03-28T10:43:11.314Z,23.30
2023-03-28T10:45:51.347Z,23.80
2023-03-28T10:48:43.380Z,23.20
2023-03-28T10:51:21.572Z,23.50
2023-03-28T10:54:14.986Z,23.50
2023-03-28T10:56:52.434Z,23.30
2023-03-28T10:59:27.322Z,22.70
2023-03-28T11:02:02.374Z,21.90
2023-03-28T11:04:41.801Z,21.50
2023-03-28T11:07:29.490Z,20.90
2023-03-28T11:10:26.934Z,20.40
2023-03-28T11:13:09.858Z,20.60
2023-03-28T11:15:53.544Z,20.50
2023-03-28T11:18:25.523Z,20.70
2023-03-28T11:21:00.076Z,20.80
2023-03-28T11:23:35.574Z,20.60
2023-03-28T11:27:12.514Z,20.80
2023-03-28T11:29:45.990Z,20.50
2023-03-28T11:32:21.716Z,20.80
2023-03-28T11:35:13.093Z,20.60
2023-03-28T11:37:45.156Z,20.60
2023-03-28T11:40:38.659Z,20.70
2023-03-28T11:43:11.552Z,21.20
2023-03-28T11:45:50.076Z,21.00
2023-03-28T11:48:34.518Z,21.20
2023-03-28T11:51:13.613Z,20.90
2023-03-28T11:53:51.420Z,20.90
2023-03-28T11:56:41.687Z,21.40
2023-03-28T11:59:40.430Z,21.30
2023-03-28T12:02:14.374Z,20.60
2023-03-28T12:04:46.013Z,20.80
2023-03-28T12:07:18.671Z,21.30
2023-03-28T12:09:51.293Z,21.20
2023-03-28T12:12:22.595Z,21.10
2023-03-28T12:14:49.656Z,21.20
2023-03-28T12:17:43.451Z,21.50
2023-03-28T12:20:15.832Z,21.60
2023-03-28T12:22:45.037Z,21.30
2023-03-28T12:25:29.810Z,21.60
2023-03-28T12:28:01.271Z,21.10
2023-03-28T12:30:43.086Z,21.30
2023-03-28T12:33:30.995Z,21.10
2023-03-28T12:36:28.528Z,21.10
2023-03-28T12:39:12.547Z,21.10
2023-03-28T12:41:42.484Z,21.30
2023-03-28T12:44:16.666Z,21.30
2023-03-28T12:46:51.483Z,21.20
2023-03-28T12:49:33.231Z,21.20
2023-03-28T12:52:05.639Z,21.20
2023-03-28T12:54:33.988Z,21.20
2023-03-28T13:00:06.300Z,21.30
2023-03-28T13:02:52.202Z,21.40
2023-03-28T13:05:31.909Z,21.40
2023-03-28T13:08:17.877Z,21.40
2023-03-28T13:10:47.600Z,21.40
2023-03-28T13:13:20.790Z,21.10
2023-03-28T13:16:06.523Z,21.40
2023-03-28T13:18:34.163Z,21.70
2023-03-28T13:21:04.462Z,21.40
2023-03-28T13:23:34.779Z,21.80
2023-03-28T13:26:03.667Z,21.60
2023-03-28T13:28:32.734Z,22.00
2023-03-28T13:31:08.539Z,21.40
2023-03-28T13:33:38.175Z,21.30
2023-03-28T13:36:05.597Z,21.50
2023-03-28T13:38:35.655Z,21.40
2023-03-28T13:41:06.533Z,21.20
2023-03-28T13:43:36.155Z,21.50
2023-03-28T13:46:18.204Z,21.60
2023-03-28T13:49:00.233Z,21.10
2023-03-28T13:51:31.573Z,21.10
2023-03-28T13:53:58.703Z,21.40
2023-03-28T13:56:27.571Z,21.50
2023-03-28T13:58:55.646Z,21.60
2023-03-28T14:01:27.379Z,21.60
2023-03-28T14:03:55.156Z,21.40
2023-03-28T14:06:24.611Z,21.60
2023-03-28T14:08:53.315Z,21.40
2023-03-28T14:11:31.736Z,21.40
2023-03-28T14:14:09.609Z,21.50
2023-03-28T14:16:37.345Z,21.70
2023-03-28T14:19:05.653Z,21.00
2023-03-28T14:21:33.287Z,20.20
2023-03-28T14:24:02.233Z,20.50
2023-03-28T14:26:32.367Z,20.30
2023-03-28T14:29:12.748Z,20.50
2023-03-28T14:31:41.830Z,21.00
2023-03-28T14:34:24.163Z,20.60
2023-03-28T14:36:58.876Z,20.60
2023-03-28T14:39:30.226Z,20.90
2023-03-28T14:41:58.098Z,20.40
2023-03-28T14:44:26.120Z,20.10
2023-03-28T14:46:56.600Z,19.60
2023-03-28T14:49:24.588Z,19.40
2023-03-28T14:51:58.379Z,19.40
2023-03-28T14:54:27.694Z,19.80
2023-03-28T14:56:56.185Z,20.10
2023-03-28T14:59:26.177Z,20.10
2023-03-28T15:01:53.416Z,19.50
2023-03-28T15:04:21.255Z,18.90
2023-03-28T15:06:55.560Z,19.20
2023-03-28T15:09:26.711Z,19.70
2023-03-28T15:11:54.506Z,19.50
2023-03-28T15:14:30.842Z,19.90
2023-03-28T15:16:58.344Z,19.70
2023-03-28T15:19:35.228Z,19.30
2023-03-28T15:22:04.691Z,18.90
2023-03-28T15:24:32.090Z,18.70
2023-03-28T15:27:01.444Z,19.10
2023-03-28T15:29:31.129Z,19.00
2023-03-28T15:32:02.836Z,18.40
2023-03-28T15:34:31.064Z,18.50
2023-03-28T15:37:02.078Z,18.70
2023-03-28T15:39:31.959Z,18.30
2023-03-28T15:42:00.414Z,18.50
2023-03-28T15:44:28.899Z,19.00
2023-03-28T15:47:00.852Z,19.10
2023-03-28T15:49:28.665Z,19.00
2023-03-28T15:51:59.626Z,18.70
2023-03-28T15:54:31.270Z,18.60
2023-03-28T15:57:00.581Z,18.30
2023-03-28T15:59:31.156Z,18.20
2023-03-28T16:02:16.805Z,18.20
2023-03-28T16:04:58.949Z,17.60
2023-03-28T16:07:27.031Z,17.70
2023-03-28T16:09:54.247Z,18.00
2023-03-28T16:12:21.429Z,17.70
2023-03-28T16:15:09.261Z,17.70
2023-03-28T16:17:58.936Z,17.40
2023-03-28T16:20:46.998Z,17.40
2023-03-28T16:23:14.553Z,17.50
2023-03-28T16:25:42.156Z,17.40
2023-03-28T16:28:13.733Z,17.40
2023-03-28T16:30:41.608Z,17.30
2023-03-28T16:33:09.014Z,17.50
2023-03-28T16:35:36.563Z,17.70
2023-03-28T16:38:03.774Z,17.70
2023-03-28T16:40:31.170Z,17.70
2023-03-28T16:42:58.576Z,17.60
2023-03-28T16:45:29.904Z,17.30
2023-03-28T16:47:57.320Z,17.30
2023-03-28T16:50:24.558Z,17.40
2023-03-28T16:52:51.718Z,17.30
2023-03-28T16:55:19.000Z,17.00
2023-03-28T16:57:46.603Z,17.00
2023-03-28T17:00:17.925Z,17.00
2023-03-28T17:02:48.625Z,16.80
2023-03-28T17:05:16.724Z,16.80
2023-03-28T17:07:43.879Z,16.70
2023-03-28T17:10:11.621Z,16.60
2023-03-28T17:12:38.863Z,16.70
2023-03-28T17:15:06.765Z,16.90
2023-03-28T17:17:33.931Z,16.50
2023-03-28T17:20:01.359Z,16.60
2023-03-28T17:22:28.445Z,16.50
2023-03-28T17:24:57.198Z,16.50
2023-03-28T17:27:24.392Z,16.60
2023-03-28T17:29:51.908Z,16.50
2023-03-28T17:32:19.197Z,16.30
2023-03-28T17:34:46.783Z,16.20
2023-03-28T17:37:13.912Z,16.20
2023-03-28T17:39:41.112Z,16.30
2023-03-28T17:42:09.176Z,16.20
2023-03-28T17:44:36.335Z,16.20
2023-03-28T17:47:03.616Z,16.00
2023-03-28T17:49:31.126Z,16.00
2023-03-28T17:51:58.825Z,15.90
2023-03-28T17:54:26.349Z,15.80
2023-03-28T17:56:53.981Z,15.70
2023-03-28T17:59:21.713Z,15.60
2023-03-28T18:01:51.268Z,15.70
2023-03-28T18:04:18.465Z,15.70
2023-03-28T18:07:00.944Z,15.60
2023-03-28T18:09:28.534Z,15.50
2023-03-28T18:11:56.146Z,15.40
2023-03-28T18:14:23.413Z,15.30
2023-03-28T18:16:50.851Z,15.40
2023-03-28T18:19:18.563Z,15.30
2023-03-28T18:21:45.693Z,15.30
2023-03-28T18:24:12.883Z,15.30
2023-03-28T18:26:39.955Z,15.10
2023-03-28T18:29:07.001Z,15.10
2023-03-28T18:31:34.155Z,15.10
2023-03-28T18:34:05.028Z,15.10
2023-03-28T18:36:32.688Z,15.00
2023-03-28T18:38:59.804Z,15.00
2023-03-28T18:41:27.399Z,14.90
2023-03-28T18:43:54.683Z,14.80
2023-03-28T18:46:21.762Z,14.70
2023-03-28T18:48:48.914Z,14.70
2023-03-28T18:51:16.151Z,14.60
2023-03-28T18:53:43.458Z,14.60
2023-03-28T18:56:12.380Z,14.60
2023-03-28T18:58:42.324Z,14.60
2023-03-28T19:01:10.176Z,14.60
2023-03-28T19:03:42.333Z,14.50
2023-03-28T19:06:11.313Z,14.50
2023-03-28T19:08:38.756Z,14.40
2023-03-28T19:11:07.941Z,14.40
2023-03-28T19:13:35.459Z,14.40
2023-03-28T19:16:07.808Z,14.40
2023-03-28T19:18:38.973Z,14.30
2023-03-28T19:21:06.932Z,14.40
2023-03-28T19:23:36.057Z,14.60
2023-03-28T19:26:05.554Z,14.50
2023-03-28T19:28:32.978Z,14.50
2023-03-28T19:31:01.371Z,14.50
2023-03-28T19:33:30.351Z,14.50
2023-03-28T19:35:57.827Z,14.50
2023-03-28T19:38:26.418Z,14.50
2023-03-28T19:40:57.501Z,14.40
2023-03-28T19:43:25.005Z,14.40
2023-03-28T19:45:52.641Z,14.40
2023-03-28T19:48:20.470Z,14.40
2023-03-28T19:50:49.086Z,14.30
2023-03-28T19:53:16.278Z,14.40
2023-03-28T19:55:46.514Z,14.20
2023-03-28T19:58:13.708Z,14.10
2023-03-28T20:00:41.384Z,14.10
2023-03-28T20:03:08.669Z,14.00
2023-03-28T20:05:40.607Z,14.10
2023-03-28T20:08:08.874Z,14.10
2023-03-28T20:10:40.391Z,14.00
2023-03-28T20:13:07.918Z,13.90
2023-03-28T20:15:39.554Z,13.90
2023-03-28T20:18:10.343Z,13.90
2023-03-28T20:20:39.041Z,14.10
2023-03-28T20:23:06.995Z,14.10
2023-03-28T20:25:34.338Z,14.00
2023-03-28T20:28:02.744Z,14.10
2023-03-28T20:30:31.623Z,14.00
2023-03-28T20:32:58.911Z,13.80
2023-03-28T20:35:27.422Z,14.10
2023-03-28T20:37:54.718Z,14.00
2023-03-28T20:40:22.356Z,13.90
2023-03-28T20:42:51.022Z,13.90
2023-03-28T20:45:24.682Z,13.70
2023-03-28T20:47:58.723Z,13.60
2023-03-28T20:50:34.149Z,13.60
2023-03-28T20:53:02.063Z,13.60
2023-03-28T20:55:29.638Z,13.50
2023-03-28T20:57:56.817Z,13.40
2023-03-28T21:00:24.999Z,13.20
2023-03-28T21:02:53.654Z,13.20
2023-03-28T21:05:22.437Z,13.20
2023-03-28T21:07:49.668Z,13.20
2023-03-28T21:10:17.300Z,13.10
2023-03-28T21:12:45.026Z,13.10
2023-03-28T21:15:13.493Z,13.10
2023-03-28T21:17:41.175Z,13.10
2023-03-28T21:20:10.304Z,13.00
2023-03-28T21:22:40.512Z,13.00
2023-03-28T21:25:08.386Z,13.00
2023-03-28T21:27:36.835Z,13.10
2023-03-28T21:30:06.923Z,13.00
2023-03-28T21:32:34.854Z,13.00
2023-03-28T21:35:04.117Z,12.90
2023-03-28T21:37:31.458Z,12.90
2023-03-28T21:39:58.519Z,12.90
2023-03-28T21:42:26.352Z,12.90
2023-03-28T21:44:53.482Z,13.10
2023-03-28T21:47:20.654Z,13.00
2023-03-28T21:49:49.419Z,12.70
2023-03-28T21:52:16.527Z,12.60
2023-03-28T21:54:43.652Z,12.50
2023-03-28T21:57:11.088Z,12.50
2023-03-28T21:59:39.710Z,12.60
2023-03-28T22:02:10.873Z,12.70
2023-03-28T22:04:41.010Z,12.70
2023-03-28T22:07:08.144Z,12.80
2023-03-28T22:09:35.922Z,12.70
2023-03-28T22:12:05.558Z,12.60
2023-03-28T22:14:33.248Z,12.60
2023-03-28T22:17:00.491Z,12.80
2023-03-28T22:19:29.997Z,12.70
2023-03-28T22:21:59.619Z,12.70
2023-03-28T22:24:27.160Z,12.70
2023-03-28T22:26:54.500Z,12.60
2023-03-28T22:29:22.720Z,12.50
2023-03-28T22:31:49.944Z,12.70
2023-03-28T22:34:17.713Z,12.60
2023-03-28T22:36:44.780Z,12.60
2023-03-28T22:39:12.310Z,12.60
2023-03-28T22:41:45.909Z,12.60
2023-03-28T22:44:13.303Z,12.60
2023-03-28T22:46:41.053Z,12.50
2023-03-28T22:49:10.090Z,12.20
2023-03-28T22:51:46.353Z,12.20
2023-03-28T22:54:16.069Z,12.20
2023-03-28T22:56:45.958Z,12.40
2023-03-28T22:59:13.436Z,12.30
2023-03-28T23:01:40.718Z,12.20
2023-03-28T23:04:07.911Z,12.20
2023-03-28T23:06:35.580Z,12.20
2023-03-28T23:09:09.177Z,12.10
2023-03-28T23:11:36.327Z,12.20
2023-03-28T23:14:03.463Z,11.90
2023-03-28T23:16:30.795Z,11.90
2023-03-28T23:18:57.971Z,11.90
2023-03-28T23:21:25.689Z,11.80
2023-03-28T23:23:53.222Z,11.90
2023-03-28T23:26:20.283Z,12.00
2023-03-28T23:28:47.409Z,11.90
2023-03-28T23:31:14.639Z,11.80
2023-03-28T23:33:41.756Z,11.60
2023-03-28T23:36:09.123Z,11.60
2023-03-28T23:38:36.230Z,11.60
2023-03-28T23:41:03.613Z,11.60
2023-03-28T23:43:30.873Z,11.60
2023-03-28T23:45:58.128Z,11.60
2023-03-28T23:48:25.291Z,11.60
2023-03-28T23:50:52.373Z,11.70
2023-03-28T23:53:19.456Z,11.60
2023-03-28T23:55:46.537Z,11.60
2023-03-28T23:58:15.766Z,11.70
